Seoul E Air Base, South Korea

12:47 PM KST on February 14, 2016 (GMT +0900)
Seoul Air Base | | Change Station
CLOSE
Current Station
Airport
Location: Seoul E AB,
Elevation: 66 ft
Nearby Weather Stations

Elev 66 ft 37.45 °N, 127.11 °E | Updated 47 minutes ago

Mostly Cloudy
Mostly Cloudy
32 °F
Feels Like 26 °F
N
7
Wind Variable Wind from SW

Today
High -- | Low -- °F
--% Chance of Precip.
Yesterday
High -- | Low -- °F
Precip. -- in
Pressure 29.95 in
Visibility 6.2 miles
Clouds Mostly Cloudy 2000 ft
Mostly Cloudy 3000 ft
Windchill 26 °F
Dew Point 25 °F
Humidity 75%
Rainfall 0.01 in
Snow Depth Not available.
7:23 AM 6:08 PM
Waxing Crescent, 37% visible
METAR RKSM 140300Z 22006KT 9999 BKN020 BKN030 00/M04 A2995 RMK CIG020 SLP142 8/600 9/700
Pressure 29.95 in
Visibility 6.2 miles
Clouds Mostly Cloudy 2000 ft
Mostly Cloudy 3000 ft
Windchill 26 °F
Dew Point 25 °F
Humidity 75%
Rainfall 0.01 in
Snow Depth Not available.
7:23 AM 6:08 PM
Waxing Crescent, 37% visible
METAR RKSM 140300Z 22006KT 9999 BKN020 BKN030 00/M04 A2995 RMK CIG020 SLP142 8/600 9/700

10-Day Weather Forecast

No radar image for this location.
×

Almanac

Astronomy

Feb. 14, 2016 Rise Set
Actual Time
Civil Twilight
Nautical Twilight
Astronomical Twilight
Moon
Length of Visible Light
Length of Day
Tomorrow will be .
, % of the Moon is Illuminated

Today's Extremes

Country Highs Country Lows

Community

WunderPhotos

Upload Photos

1,892,738 photos uploaded!

WunderBlog® & News

Nearby

Air Quality

  Air Quality AQ Index Pollutant
Not available.

Snow Depth

Station Depth Elevation

Earthquake Activity

City Distance Mag. Time & Date
Minimum magnitude displayed is 2.5.

Coastal Water Temperatures

Place Temperature

Stations

Nearby Weather Stations

Station Location Temp. Windchill Dew Point Humidity Wind Precip. Elev Updated Type